Time;durP1;ratioP1;P1;durP2;ratioP2;P2;SDS_P1;SDS_P2;PMS_P1;PMS_P2;Temp;Humidity;BMP_temperature;BMP_pressure;BME280_temperature;BME280_humidity;BME280_pressure;Samples;Min_cycle;Max_cycle;Signal;HPM_P1;HPM_P2
2021/07/13 00:00:11;;;;;;;46.53;27.73;;;18.20;99.90;;;;;;5092875;28;20217;-79
2021/07/13 00:02:37;;;;;;;45.90;28.30;;;18.20;99.90;;;;;;5092953;28;20286;-79
2021/07/13 00:05:11;;;;;;;42.97;27.00;;;18.20;99.90;;;;;;5092609;28;20187;-79
2021/07/13 00:07:38;;;;;;;48.30;29.67;;;18.10;99.90;;;;;;5092693;28;20286;-79
2021/07/13 00:10:07;;;;;;;53.17;31.53;;;18.10;99.90;;;;;;5092323;28;20671;-79
2021/07/13 00:12:35;;;;;;;51.73;29.40;;;18.10;99.90;;;;;;5092996;28;20222;-79
2021/07/13 00:15:02;;;;;;;47.17;29.30;;;18.20;99.90;;;;;;5090237;28;20198;-79
2021/07/13 00:17:30;;;;;;;48.33;30.27;;;18.10;99.90;;;;;;5092760;28;20389;-79
2021/07/13 00:19:57;;;;;;;57.37;32.07;;;18.10;99.90;;;;;;5092465;28;20632;-79
2021/07/13 00:22:23;;;;;;;58.27;33.50;;;18.10;99.90;;;;;;5092728;28;20622;-79
2021/07/13 00:24:50;;;;;;;52.30;31.20;;;18.30;99.90;;;;;;5092302;28;20622;-79
2021/07/13 00:27:17;;;;;;;52.23;30.67;;;18.30;99.90;;;;;;5092422;28;20203;-79
2021/07/13 00:29:44;;;;;;;54.50;30.57;;;18.20;99.90;;;;;;5092739;28;20269;-79
2021/07/13 00:32:11;;;;;;;50.77;30.07;;;18.10;99.90;;;;;;5092478;28;20190;-79
2021/07/13 00:34:39;;;;;;;46.63;29.23;;;18.00;99.90;;;;;;5092341;28;20223;-79
2021/07/13 00:37:06;;;;;;;47.70;28.90;;;18.00;99.90;;;;;;5092040;28;20653;-79
2021/07/13 00:39:33;;;;;;;47.87;28.63;;;18.00;99.90;;;;;;5092446;28;20301;-79
2021/07/13 00:42:00;;;;;;;46.90;27.33;;;17.90;99.90;;;;;;5092193;28;20282;-79
2021/07/13 00:44:27;;;;;;;49.57;29.33;;;17.90;99.90;;;;;;5092403;28;20223;-79
2021/07/13 00:46:54;;;;;;;48.70;30.37;;;17.90;99.90;;;;;;5092468;28;20195;-79
2021/07/13 00:49:21;;;;;;;53.27;31.47;;;18.00;99.90;;;;;;5092540;28;20190;-79
2021/07/13 00:51:49;;;;;;;66.17;35.80;;;18.10;99.90;;;;;;5092736;28;20721;-79
2021/07/13 00:54:18;;;;;;;54.40;33.13;;;18.30;99.90;;;;;;5093074;28;20285;-79
2021/07/13 00:56:51;;;;;;;61.97;32.53;;;18.20;99.90;;;;;;5092921;28;20285;-79
2021/07/13 00:59:18;;;;;;;58.03;32.67;;;18.20;99.90;;;;;;5092864;28;20227;-79
2021/07/13 01:01:46;;;;;;;52.40;30.70;;;18.20;99.90;;;;;;5092632;28;20281;-79
2021/07/13 01:04:14;;;;;;;48.33;28.27;;;18.00;99.90;;;;;;5092980;28;20568;-79
2021/07/13 01:06:50;;;;;;;49.73;29.07;;;18.00;99.90;;;;;;5092631;28;20299;-79
2021/07/13 01:09:28;;;;;;;47.20;28.40;;;18.00;99.90;;;;;;5092837;28;20565;-79
2021/07/13 01:12:02;;;;;;;49.20;28.43;;;18.00;99.90;;;;;;5096484;28;20757;-79
2021/07/13 01:14:35;;;;;;;50.80;28.80;;;17.90;99.90;;;;;;5096882;28;20311;-79
2021/07/13 01:17:06;;;;;;;57.03;30.93;;;18.00;99.90;;;;;;5096562;28;20294;-79
2021/07/13 01:20:02;;;;;;;48.77;29.20;;;18.00;99.90;;;;;;5096320;28;20543;-79
2021/07/13 01:22:37;;;;;;;54.87;30.63;;;18.00;99.90;;;;;;5096396;28;20226;-79
2021/07/13 01:25:11;;;;;;;62.83;34.93;;;18.00;99.90;;;;;;5096178;28;20195;-79
2021/07/13 01:27:46;;;;;;;61.20;33.30;;;18.00;99.90;;;;;;5096239;28;20215;-79
2021/07/13 01:30:17;;;;;;;54.70;31.43;;;18.00;99.90;;;;;;5096448;28;20297;-79
2021/07/13 01:32:49;;;;;;;56.77;30.53;;;18.00;99.90;;;;;;5096046;28;20282;-79
2021/07/13 01:35:21;;;;;;;57.30;32.00;;;18.00;99.90;;;;;;5096229;28;20290;-79
2021/07/13 01:37:52;;;;;;;52.43;30.20;;;18.00;99.90;;;;;;5095954;28;20298;-79
2021/07/13 01:40:19;;;;;;;64.83;32.50;;;18.00;99.90;;;;;;5096239;28;20203;-79
2021/07/13 01:42:47;;;;;;;54.43;32.33;;;18.00;99.90;;;;;;5096088;28;20285;-79
2021/07/13 01:45:16;;;;;;;63.80;34.73;;;17.90;99.90;;;;;;5095986;28;20704;-79
2021/07/13 01:47:44;;;;;;;64.90;36.60;;;17.90;99.90;;;;;;5095517;28;20740;-78
2021/07/13 01:50:12;;;;;;;73.47;37.67;;;18.00;99.90;;;;;;5095623;28;20205;-78
2021/07/13 01:52:40;;;;;;;62.77;35.60;;;18.10;99.90;;;;;;5096144;28;20190;-79
2021/07/13 01:55:08;;;;;;;66.10;36.33;;;18.10;99.90;;;;;;5095968;28;20226;-79
2021/07/13 01:57:36;;;;;;;72.33;38.20;;;18.10;99.90;;;;;;5095692;28;20209;-79
2021/07/13 02:00:08;;;;;;;71.67;39.30;;;18.10;99.90;;;;;;5095430;28;20321;-79
2021/07/13 02:02:38;;;;;;;82.07;40.87;;;18.10;99.90;;;;;;5095699;28;20226;-79
2021/07/13 02:05:08;;;;;;;77.03;42.20;;;18.00;99.90;;;;;;5095705;28;20206;-79
2021/07/13 02:07:38;;;;;;;81.20;40.87;;;18.00;99.90;;;;;;5095687;28;20199;-79
2021/07/13 02:10:07;;;;;;;78.40;39.83;;;18.00;99.90;;;;;;5095750;28;20289;-79
2021/07/13 02:12:35;;;;;;;72.83;38.17;;;17.90;99.90;;;;;;5095602;28;20282;-79
2021/07/13 02:15:02;;;;;;;73.27;37.73;;;17.90;99.90;;;;;;5095432;28;20207;-78
2021/07/13 02:17:31;;;;;;;72.57;37.03;;;17.90;99.90;;;;;;5095219;28;20356;-78
2021/07/13 02:20:00;;;;;;;47.40;29.47;;;17.80;99.90;;;;;;5095184;28;20223;-79
2021/07/13 02:22:28;;;;;;;51.37;29.43;;;17.80;99.90;;;;;;5094104;28;20221;-79
2021/07/13 02:24:55;;;;;;;47.27;27.27;;;17.80;99.90;;;;;;5095281;28;20198;-78
2021/07/13 02:27:22;;;;;;;49.47;27.40;;;17.80;99.90;;;;;;5094991;28;20245;-79
2021/07/13 02:29:55;;;;;;;48.10;28.00;;;17.80;99.90;;;;;;5095044;28;20198;-79
2021/07/13 02:32:28;;;;;;;50.60;29.43;;;17.80;99.90;;;;;;5095176;28;20742;-79
2021/07/13 02:34:57;;;;;;;52.73;30.97;;;17.70;99.90;;;;;;5095241;28;20281;-79
2021/07/13 02:37:26;;;;;;;61.47;34.67;;;17.70;99.90;;;;;;5095388;28;20297;-78
2021/07/13 02:39:54;;;;;;;63.20;35.50;;;17.70;99.90;;;;;;5094754;28;20258;-79
2021/07/13 02:42:22;;;;;;;66.07;37.57;;;17.60;99.90;;;;;;5094760;28;20245;-79
2021/07/13 02:44:50;;;;;;;67.13;38.43;;;17.60;99.90;;;;;;5094214;28;20191;-79
2021/07/13 02:47:18;;;;;;;70.87;39.43;;;17.60;99.90;;;;;;5094885;28;20223;-79
2021/07/13 02:49:53;;;;;;;80.30;39.97;;;17.60;99.90;;;;;;5094473;28;20222;-79
2021/07/13 02:52:24;;;;;;;72.73;40.47;;;17.60;99.90;;;;;;5094707;28;20281;-79
2021/07/13 02:54:58;;;;;;;73.33;41.03;;;17.70;99.90;;;;;;5094552;28;20235;-78
2021/07/13 02:57:27;;;;;;;83.57;43.17;;;17.80;99.90;;;;;;5094395;28;20191;-78
2021/07/13 02:59:55;;;;;;;83.37;46.20;;;17.80;99.90;;;;;;5094383;28;20322;-78
2021/07/13 03:02:22;;;;;;;83.53;45.43;;;17.80;99.90;;;;;;5094793;28;20376;-78
2021/07/13 03:04:51;;;;;;;80.43;43.50;;;17.80;99.90;;;;;;5094259;28;20198;-78
2021/07/13 03:07:19;;;;;;;81.53;43.70;;;17.80;99.90;;;;;;5094469;28;20293;-78
2021/07/13 03:09:47;;;;;;;80.60;43.33;;;17.80;99.90;;;;;;5094199;28;20290;-79
2021/07/13 03:12:16;;;;;;;71.10;40.23;;;17.80;99.90;;;;;;5094221;28;20281;-79
2021/07/13 03:14:44;;;;;;;54.77;35.43;;;17.70;99.90;;;;;;5094056;28;20209;-78
2021/07/13 03:17:12;;;;;;;57.97;35.63;;;17.30;99.90;;;;;;5094054;28;20758;-78
2021/07/13 03:19:39;;;;;;;65.27;36.40;;;17.50;99.90;;;;;;5094108;28;20254;-78
2021/07/13 03:22:13;;;;;;;61.57;36.37;;;17.70;99.90;;;;;;5094212;28;20293;-79
2021/07/13 03:24:41;;;;;;;62.20;36.37;;;17.70;99.90;;;;;;5094341;28;20281;-78
2021/07/13 03:27:09;;;;;;;68.57;37.47;;;17.60;99.90;;;;;;5093713;28;20694;-78
2021/07/13 03:29:39;;;;;;;59.03;35.47;;;17.70;99.90;;;;;;5093781;28;20283;-78
2021/07/13 03:32:07;;;;;;;64.43;37.50;;;17.60;99.90;;;;;;5093951;28;20195;-78
2021/07/13 03:34:34;;;;;;;71.23;40.07;;;17.60;99.90;;;;;;5093582;28;20230;-78
2021/07/13 03:37:02;;;;;;;82.60;43.30;;;17.60;99.90;;;;;;5093935;28;20234;-78
2021/07/13 03:39:29;;;;;;;74.50;41.50;;;17.60;99.90;;;;;;5093694;28;20226;-78
2021/07/13 03:41:57;;;;;;;73.63;42.50;;;17.70;99.90;;;;;;5093778;28;20285;-78
2021/07/13 03:44:24;;;;;;;78.83;43.23;;;17.80;99.90;;;;;;5093837;28;20289;-78
2021/07/13 03:46:53;;;;;;;72.97;42.50;;;17.90;99.90;;;;;;5093128;28;20297;-78
2021/07/13 03:49:24;;;;;;;97.47;49.27;;;18.00;99.90;;;;;;5093583;28;20285;-78
2021/07/13 03:51:51;;;;;;;103.33;50.83;;;18.00;99.90;;;;;;5093812;28;20191;-78
2021/07/13 03:54:20;;;;;;;117.87;51.70;;;18.10;99.90;;;;;;5093554;28;20222;-78
2021/07/13 03:56:49;;;;;;;105.53;52.33;;;18.20;99.90;;;;;;5093439;28;20290;-78
2021/07/13 03:59:16;;;;;;;113.47;53.37;;;18.20;99.90;;;;;;5093325;28;20218;-78
2021/07/13 04:01:44;;;;;;;104.90;52.37;;;18.10;99.90;;;;;;5093315;28;20746;-78
2021/07/13 04:04:12;;;;;;;107.60;52.57;;;18.10;99.90;;;;;;5093540;28;20285;-78
2021/07/13 04:06:39;;;;;;;114.20;54.13;;;18.10;99.90;;;;;;5093292;28;20293;-78
2021/07/13 04:09:08;;;;;;;115.80;54.50;;;18.20;99.90;;;;;;5093245;28;20230;-78
2021/07/13 04:11:35;;;;;;;127.33;53.73;;;18.20;99.90;;;;;;5093558;28;20221;-78
2021/07/13 04:14:02;;;;;;;143.37;55.37;;;18.30;99.90;;;;;;5093063;28;20271;-78
2021/07/13 04:16:30;;;;;;;121.67;54.17;;;18.30;99.90;;;;;;5093195;28;20282;-77
2021/07/13 04:18:57;;;;;;;128.10;55.93;;;18.30;99.90;;;;;;5093247;28;20220;-78
2021/07/13 04:21:25;;;;;;;163.17;56.77;;;18.30;99.90;;;;;;5093327;28;20207;-78
2021/07/13 04:23:52;;;;;;;147.50;56.87;;;18.30;99.90;;;;;;5093088;28;20233;-78
2021/07/13 04:26:19;;;;;;;133.50;56.03;;;18.20;99.90;;;;;;5092352;28;20201;-78
2021/07/13 04:28:46;;;;;;;138.63;56.23;;;18.20;99.90;;;;;;5092819;28;20285;-79
2021/07/13 04:31:13;;;;;;;126.97;57.17;;;18.10;99.90;;;;;;5092499;28;20289;-78
2021/07/13 04:33:40;;;;;;;192.60;58.47;;;18.20;99.90;;;;;;5092840;28;20205;-78
2021/07/13 04:36:07;;;;;;;148.93;56.97;;;18.40;99.90;;;;;;5092940;28;20289;-78
2021/07/13 04:38:35;;;;;;;133.47;57.73;;;18.40;99.90;;;;;;5093007;28;20297;-78
2021/07/13 04:41:02;;;;;;;160.93;56.63;;;18.40;99.90;;;;;;5092691;28;20233;-78
2021/07/13 04:43:29;;;;;;;152.47;57.47;;;18.50;99.90;;;;;;5093076;28;20194;-78
2021/07/13 04:45:56;;;;;;;187.30;58.30;;;18.60;99.90;;;;;;5095688;28;20298;-78
2021/07/13 04:48:22;;;;;;;161.53;57.13;;;18.60;99.90;;;;;;5096837;28;20229;-78
2021/07/13 04:50:49;;;;;;;135.33;58.23;;;18.60;99.90;;;;;;5096792;28;20234;-78
2021/07/13 04:53:16;;;;;;;127.63;56.30;;;18.70;99.90;;;;;;5096386;28;20282;-78
2021/07/13 04:55:44;;;;;;;155.17;58.30;;;18.80;99.90;;;;;;5096976;28;20365;-78
2021/07/13 04:58:11;;;;;;;136.77;58.47;;;18.90;99.90;;;;;;5096653;28;20195;-78
2021/07/13 05:00:38;;;;;;;138.07;59.33;;;18.80;99.90;;;;;;5096378;28;20218;-78
2021/07/13 05:03:05;;;;;;;114.57;57.17;;;18.60;99.90;;;;;;5097008;28;20203;-78
2021/07/13 05:05:32;;;;;;;119.13;56.03;;;18.60;99.90;;;;;;5096637;28;20249;-78
2021/07/13 05:07:59;;;;;;;145.90;58.40;;;18.60;99.90;;;;;;5096807;28;20286;-78
2021/07/13 05:10:25;;;;;;;127.20;57.23;;;18.50;99.90;;;;;;5096423;28;20286;-78
2021/07/13 05:12:54;;;;;;;127.97;54.93;;;18.40;99.90;;;;;;5096621;28;20187;-78
2021/07/13 05:15:20;;;;;;;163.20;57.93;;;18.40;99.90;;;;;;5096364;28;20222;-78
2021/07/13 05:17:47;;;;;;;144.17;58.63;;;18.30;99.90;;;;;;5094656;28;20191;-78
2021/07/13 05:20:15;;;;;;;137.23;58.43;;;18.40;99.90;;;;;;5086771;28;20322;-78
2021/07/13 05:22:42;;;;;;;413.27;64.53;;;18.30;99.90;;;;;;5102156;28;20187;-78
2021/07/13 05:25:12;;;;;;;134.90;56.43;;;18.40;99.90;;;;;;5095946;28;20740;-78
2021/07/13 05:27:40;;;;;;;234.53;59.50;;;18.40;99.90;;;;;;5091508;28;20218;-78
2021/07/13 05:30:10;;;;;;;183.97;56.10;;;18.30;99.90;;;;;;5093446;28;20278;-78
2021/07/13 05:32:37;;;;;;;203.20;58.57;;;18.30;99.90;;;;;;5088031;28;20576;-78
2021/07/13 05:35:06;;;;;;;199.33;56.07;;;18.20;99.90;;;;;;5095888;28;20213;-78
2021/07/13 05:37:34;;;;;;;173.30;56.57;;;18.00;99.90;;;;;;5095577;28;20205;-78
2021/07/13 05:40:02;;;;;;;250.77;56.57;;;18.00;99.90;;;;;;5100168;28;20218;-78
2021/07/13 05:42:28;;;;;;;161.77;57.87;;;18.10;99.90;;;;;;5097486;28;20551;-78
2021/07/13 05:44:56;;;;;;;147.03;53.03;;;18.30;99.90;;;;;;5110764;28;20281;-77
2021/07/13 05:47:24;;;;;;;161.00;56.63;;;18.50;99.90;;;;;;5089249;28;20187;-78
2021/07/13 05:49:51;;;;;;;192.63;55.37;;;18.60;99.90;;;;;;5095062;28;20187;-78
2021/07/13 05:52:18;;;;;;;274.77;59.17;;;18.70;99.90;;;;;;5095638;28;20333;-78
2021/07/13 05:54:45;;;;;;;194.80;56.13;;;18.70;99.90;;;;;;5086012;28;20286;-78
2021/07/13 05:57:11;;;;;;;141.53;58.40;;;18.80;99.90;;;;;;5094591;28;20198;-78
2021/07/13 05:59:40;;;;;;;137.70;55.53;;;19.00;99.90;;;;;;5091786;28;20630;-77
2021/07/13 06:02:08;;;;;;;139.67;59.30;;;19.00;99.90;;;;;;5085212;28;20598;-78
2021/07/13 06:04:36;;;;;;;145.07;57.83;;;18.90;99.90;;;;;;5073784;28;20235;-78
2021/07/13 06:07:04;;;;;;;137.23;56.53;;;19.00;99.90;;;;;;5074673;28;21016;-78
2021/07/13 06:09:31;;;;;;;141.60;57.80;;;19.10;99.90;;;;;;5075197;28;20566;-78
2021/07/13 06:11:58;;;;;;;147.30;58.50;;;19.20;99.90;;;;;;5078022;28;20190;-78
2021/07/13 06:14:25;;;;;;;148.10;59.50;;;19.30;99.90;;;;;;5094953;28;20191;-78
2021/07/13 06:16:52;;;;;;;146.07;57.87;;;19.30;99.90;;;;;;5090041;28;20287;-78
2021/07/13 06:19:20;;;;;;;147.90;59.63;;;19.30;99.90;;;;;;5092848;28;20286;-77
2021/07/13 06:21:48;;;;;;;152.80;57.67;;;19.30;99.90;;;;;;5092037;28;20252;-77
2021/07/13 06:24:15;;;;;;;146.57;58.37;;;19.40;99.90;;;;;;5093158;28;20198;-78
2021/07/13 06:26:42;;;;;;;149.33;58.63;;;19.30;99.90;;;;;;5089970;28;20206;-78
2021/07/13 06:29:09;;;;;;;142.40;55.77;;;19.30;99.90;;;;;;5093452;28;20561;-77
2021/07/13 06:31:36;;;;;;;139.97;56.67;;;19.20;99.90;;;;;;5093431;28;20297;-78
2021/07/13 06:34:03;;;;;;;136.00;56.67;;;19.30;99.90;;;;;;5093578;28;20194;-78
2021/07/13 06:36:29;;;;;;;151.00;59.67;;;19.30;99.90;;;;;;5094719;28;20200;-78
2021/07/13 06:38:58;;;;;;;157.67;58.53;;;19.30;99.90;;;;;;5094619;28;20290;-78
2021/07/13 06:41:25;;;;;;;146.77;57.97;;;19.40;99.90;;;;;;5094370;28;20689;-78
2021/07/13 06:43:51;;;;;;;139.30;56.87;;;19.20;99.90;;;;;;5094752;28;20560;-78
2021/07/13 06:46:18;;;;;;;132.50;54.80;;;19.10;99.90;;;;;;5094121;28;20286;-78
2021/07/13 06:48:45;;;;;;;117.30;53.83;;;19.30;99.90;;;;;;5094513;28;20199;-78
2021/07/13 06:51:12;;;;;;;121.27;53.47;;;19.20;99.90;;;;;;5094431;28;20195;-79
2021/07/13 06:53:39;;;;;;;118.10;53.23;;;19.30;99.90;;;;;;5094109;28;20198;-78
2021/07/13 06:56:07;;;;;;;120.20;54.37;;;19.40;99.90;;;;;;5093934;28;20289;-78
2021/07/13 06:58:34;;;;;;;122.83;54.47;;;19.60;99.90;;;;;;5094382;28;20286;-78
2021/07/13 07:01:01;;;;;;;118.17;55.00;;;19.80;99.90;;;;;;5093713;28;20228;-78
2021/07/13 07:03:28;;;;;;;113.20;53.13;;;20.10;99.90;;;;;;5093654;28;20285;-78
2021/07/13 07:05:55;;;;;;;108.23;52.47;;;20.20;99.90;;;;;;5093847;28;20202;-78
2021/07/13 07:08:21;;;;;;;107.07;52.70;;;20.30;99.90;;;;;;5085995;28;20642;-78
2021/07/13 07:10:48;;;;;;;112.60;53.87;;;20.30;99.90;;;;;;5073695;28;20223;-78
2021/07/13 07:13:16;;;;;;;106.87;52.13;;;20.40;99.90;;;;;;5073607;28;20226;-78
2021/07/13 07:15:43;;;;;;;106.00;52.23;;;20.10;99.90;;;;;;5073702;28;20286;-78
2021/07/13 07:18:10;;;;;;;107.60;53.40;;;19.70;99.90;;;;;;5073438;28;20231;-78
2021/07/13 07:20:37;;;;;;;109.07;52.70;;;19.70;99.90;;;;;;5073260;28;20315;-78
2021/07/13 07:23:04;;;;;;;97.97;51.20;;;19.30;99.90;;;;;;5073407;28;20196;-78
2021/07/13 07:25:31;;;;;;;105.83;52.47;;;19.60;99.90;;;;;;5073237;28;20723;-78
2021/07/13 07:27:59;;;;;;;102.73;52.03;;;19.80;99.90;;;;;;5073073;28;20378;-78
2021/07/13 07:30:28;;;;;;;104.93;52.17;;;19.80;99.90;;;;;;5073249;28;20286;-78
2021/07/13 07:32:56;;;;;;;104.53;52.27;;;19.70;99.90;;;;;;5073282;28;20282;-78
2021/07/13 07:35:23;;;;;;;102.17;51.53;;;20.20;99.90;;;;;;5075950;28;20191;-78
2021/07/13 07:37:51;;;;;;;97.83;50.27;;;20.80;99.90;;;;;;5092824;28;20305;-78
2021/07/13 07:40:20;;;;;;;88.57;49.67;;;21.10;99.90;;;;;;5092821;28;20309;-78
2021/07/13 07:42:48;;;;;;;90.27;50.33;;;21.40;99.90;;;;;;5093276;28;20560;-78
2021/07/13 07:45:16;;;;;;;91.15;50.35;;;21.20;99.90;;;;;;5093238;28;20209;-78
2021/07/13 07:47:45;;;;;;;90.78;50.22;;;20.70;99.90;;;;;;5093489;28;20607;-78
2021/07/13 07:50:13;;;;;;;91.85;51.40;;;20.70;99.90;;;;;;5093161;28;20286;-78
2021/07/13 07:52:40;;;;;;;107.13;54.03;;;20.30;99.90;;;;;;5093316;28;20252;-78
2021/07/13 07:55:08;;;;;;;104.50;53.80;;;20.40;99.90;;;;;;5093243;28;20226;-78
2021/07/13 07:57:36;;;;;;;115.50;57.63;;;20.20;99.90;;;;;;5093342;28;20286;-79
2021/07/13 08:00:06;;;;;;;121.83;57.87;;;20.00;99.90;;;;;;5093122;28;20285;-78
2021/07/13 08:02:33;;;;;;;125.17;57.83;;;20.00;99.90;;;;;;5095799;28;20285;-79
2021/07/13 08:05:01;;;;;;;120.77;57.80;;;20.20;99.90;;;;;;5093252;28;20229;-79
2021/07/13 08:07:28;;;;;;;113.50;56.70;;;20.30;99.90;;;;;;5092256;28;20201;-78
2021/07/13 08:09:55;;;;;;;123.93;57.95;;;20.50;99.90;;;;;;5091531;28;20634;-78
2021/07/13 08:12:23;;;;;;;116.25;58.17;;;20.70;99.90;;;;;;5092906;28;20222;-78
2021/07/13 08:14:49;;;;;;;115.17;57.30;;;21.00;99.90;;;;;;5092925;28;20348;-78
2021/07/13 08:17:16;;;;;;;112.70;57.58;;;21.60;99.90;;;;;;5092582;28;20281;-79
2021/07/13 08:19:43;;;;;;;116.55;57.30;;;21.90;99.90;;;;;;5092926;28;20209;-79
2021/07/13 08:22:12;;;;;;;111.60;57.42;;;22.10;99.90;;;;;;5092534;28;20230;-79
2021/07/13 08:24:40;;;;;;;108.15;56.13;;;22.00;99.90;;;;;;5093017;28;20199;-78
2021/07/13 08:27:08;;;;;;;101.82;53.17;;;22.00;99.90;;;;;;5080454;28;20207;-79
2021/07/13 08:29:35;;;;;;;108.93;56.65;;;21.90;99.90;;;;;;5072836;28;20294;-78
2021/07/13 08:32:03;;;;;;;110.47;56.20;;;21.70;99.90;;;;;;5072217;28;20719;-78
2021/07/13 08:34:31;;;;;;;117.05;58.75;;;21.50;99.90;;;;;;5072750;28;20191;-78
2021/07/13 08:36:58;;;;;;;114.07;57.38;;;21.40;99.90;;;;;;5072321;28;20253;-78
2021/07/13 08:39:26;;;;;;;119.75;58.50;;;21.30;99.90;;;;;;5072371;28;20724;-78
2021/07/13 08:41:54;;;;;;;112.43;56.47;;;21.40;99.90;;;;;;5072339;28;20309;-78
2021/07/13 08:44:21;;;;;;;114.72;58.40;;;21.30;99.90;;;;;;5072686;28;20196;-78
2021/07/13 08:46:48;;;;;;;112.88;57.00;;;21.20;99.90;;;;;;5082356;28;20227;-78
2021/07/13 08:49:15;;;;;;;112.68;57.38;;;21.20;99.90;;;;;;5092657;28;20281;-78
2021/07/13 08:51:43;;;;;;;109.72;56.40;;;21.20;99.90;;;;;;5092641;28;20221;-78
2021/07/13 08:54:10;;;;;;;103.57;56.63;;;21.40;99.90;;;;;;5092713;28;20206;-78
2021/07/13 08:56:39;;;;;;;108.18;56.47;;;21.60;99.90;;;;;;5092597;28;20287;-78
2021/07/13 08:59:07;;;;;;;104.75;58.40;;;21.50;99.90;;;;;;5074187;28;20608;-78
2021/07/13 09:01:37;;;;;;;103.90;56.78;;;21.40;99.90;;;;;;5072567;28;20310;-78
2021/07/13 09:04:06;;;;;;;106.70;58.58;;;21.30;99.90;;;;;;5091427;28;20278;-78
2021/07/13 09:06:52;;;;;;;101.57;58.00;;;21.20;99.90;;;;;;5091770;28;20762;-77
2021/07/13 09:09:29;;;;;;;107.25;57.45;;;21.40;99.90;;;;;;5092700;28;20191;-78
2021/07/13 09:12:15;;;;;;;108.38;58.92;;;21.10;99.90;;;;;;5091500;28;20198;-78
2021/07/13 09:14:54;;;;;;;112.55;59.20;;;21.20;99.90;;;;;;5087357;28;20195;-78
2021/07/13 09:17:38;;;;;;;111.70;61.03;;;21.40;99.90;;;;;;5091971;28;20665;-78
2021/07/13 09:20:11;;;;;;;115.28;61.55;;;21.60;99.90;;;;;;5095451;28;20917;-78
2021/07/13 09:22:41;;;;;;;110.55;62.97;;;21.50;99.90;;;;;;5106290;28;20269;-78
2021/07/13 09:25:29;;;;;;;112.28;61.47;;;21.50;99.90;;;;;;5084790;28;20198;-79
2021/07/13 09:28:09;;;;;;;118.95;63.83;;;21.40;99.90;;;;;;5087650;28;20253;-78
2021/07/13 09:30:36;;;;;;;103.40;59.38;;;21.50;99.90;;;;;;5070339;28;20268;-78
2021/07/13 09:33:18;;;;;;;109.55;62.15;;;22.10;99.90;;;;;;5074087;28;20206;-78
2021/07/13 09:35:59;;;;;;;107.85;60.85;;;22.50;99.90;;;;;;5075923;28;20209;-79
2021/07/13 09:38:27;;;;;;;98.88;58.42;;;22.60;99.90;;;;;;5075604;28;20206;-79
2021/07/13 09:41:05;;;;;;;101.43;59.80;;;22.20;99.90;;;;;;5075118;28;20270;-78
2021/07/13 09:44:01;;;;;;;99.22;57.10;;;21.70;99.90;;;;;;5075250;28;20202;-77
2021/07/13 09:46:33;;;;;;;88.75;50.30;;;21.40;99.90;;;;;;5072033;28;20186;-77
2021/07/13 09:49:19;;;;;;;85.25;47.50;;;21.50;99.90;;;;;;5092675;28;20268;-78
2021/07/13 09:51:49;;;;;;;72.82;42.10;;;21.90;99.90;;;;;;5093611;28;20191;-77
2021/07/13 09:54:43;;;;;;;70.68;42.85;;;21.70;99.90;;;;;;5093775;28;20583;-78
2021/07/13 09:57:15;;;;;;;75.28;42.13;;;21.60;99.90;;;;;;5093860;28;20859;-78
2021/07/13 09:59:43;;;;;;;75.55;41.47;;;21.70;99.90;;;;;;5092615;28;20199;-79
2021/07/13 10:02:11;;;;;;;65.00;39.22;;;22.20;99.90;;;;;;5094557;28;20297;-78
2021/07/13 10:04:41;;;;;;;64.93;39.15;;;22.30;99.90;;;;;;5091338;28;20190;-78
2021/07/13 10:07:09;;;;;;;68.43;39.45;;;22.50;99.90;;;;;;5094984;28;20552;-78
2021/07/13 10:09:43;;;;;;;68.72;40.33;;;22.40;99.90;;;;;;5093306;28;20213;-78
2021/07/13 10:12:14;;;;;;;66.07;38.63;;;22.70;99.90;;;;;;5104161;28;20226;-78
2021/07/13 10:14:43;;;;;;;62.25;37.40;;;22.50;99.90;;;;;;5094584;28;20199;-78
2021/07/13 10:17:11;;;;;;;67.05;37.97;;;22.40;99.90;;;;;;5097762;28;20202;-79
2021/07/13 10:19:45;;;;;;;63.55;38.20;;;22.50;99.90;;;;;;5094817;28;20198;-78
2021/07/13 10:22:14;;;;;;;60.83;37.10;;;22.30;99.90;;;;;;5094551;28;20218;-78
2021/07/13 10:24:43;;;;;;;61.63;39.38;;;22.50;99.90;;;;;;5099512;28;20195;-77
2021/07/13 10:27:14;;;;;;;59.53;40.65;;;22.30;99.90;;;;;;5098174;28;20207;-77
2021/07/13 10:29:57;;;;;;;59.00;39.22;;;22.20;99.90;;;;;;5094715;28;20190;-77
2021/07/13 10:32:38;;;;;;;60.38;38.90;;;22.10;99.90;;;;;;5098063;28;20195;-77
2021/07/13 10:35:23;;;;;;;59.90;38.25;;;22.20;99.90;;;;;;5093971;28;20561;-77
2021/07/13 10:37:51;;;;;;;57.78;38.53;;;22.40;99.90;;;;;;5093840;28;20183;-80
2021/07/13 10:40:40;;;;;;;60.50;40.28;;;23.00;99.90;;;;;;5091254;28;20206;-80
2021/07/13 10:43:16;;;;;;;58.22;38.85;;;23.30;99.90;;;;;;5090918;28;20207;-80
2021/07/13 10:45:46;;;;;;;51.80;38.60;;;23.40;99.90;;;;;;5093047;28;20187;-80
2021/07/13 10:48:14;;;;;;;55.58;39.28;;;23.00;99.90;;;;;;5092345;28;20236;-80
2021/07/13 10:50:48;;;;;;;59.70;40.70;;;22.80;99.90;;;;;;5093401;28;20634;-80
2021/07/13 10:53:29;;;;;;;54.33;37.72;;;22.60;99.90;;;;;;5094091;28;20186;-80
2021/07/13 10:56:15;;;;;;;52.03;37.45;;;23.10;99.90;;;;;;5092380;28;20248;-80
2021/07/13 10:58:50;;;;;;;53.65;37.80;;;23.50;99.90;;;;;;5092224;28;20237;-80
2021/07/13 11:01:24;;;;;;;50.40;37.53;;;23.30;99.90;;;;;;5090221;28;20577;-80
2021/07/13 11:04:15;;;;;;;51.55;37.97;;;23.60;99.90;;;;;;5090630;28;20234;-80
2021/07/13 11:06:46;;;;;;;49.83;36.83;;;23.80;99.90;;;;;;5093307;28;20278;-80
2021/07/13 11:09:35;;;;;;;49.53;36.25;;;24.40;99.90;;;;;;5093502;28;20203;-80
2021/07/13 11:12:08;;;;;;;47.88;35.72;;;24.20;99.90;;;;;;5083939;28;20248;-80
2021/07/13 11:14:47;;;;;;;48.20;35.97;;;24.00;99.90;;;;;;5089233;28;20195;-80
2021/07/13 11:17:22;;;;;;;48.10;36.80;;;23.70;99.90;;;;;;5098898;28;20195;-80
2021/07/13 11:19:48;;;;;;;52.00;36.53;;;23.40;99.90;;;;;;5098740;28;20284;-80
2021/07/13 11:22:17;;;;;;;47.40;37.17;;;23.20;99.90;;;;;;5103957;28;20249;-81
2021/07/13 11:24:44;;;;;;;51.63;38.42;;;23.30;99.90;;;;;;5093869;28;20666;-80
2021/07/13 11:27:17;;;;;;;53.33;37.25;;;23.20;99.90;;;;;;5093174;28;20202;-81
2021/07/13 11:29:53;;;;;;;47.25;37.00;;;23.30;99.90;;;;;;5078302;28;20229;-80
2021/07/13 11:32:22;;;;;;;46.92;36.90;;;23.70;99.90;;;;;;5091233;28;20195;-80
2021/07/13 11:34:49;;;;;;;51.58;39.65;;;24.00;99.90;;;;;;5092095;28;20563;-80
2021/07/13 11:37:17;;;;;;;56.13;40.65;;;23.70;99.90;;;;;;5089080;28;20191;-82
2021/07/13 11:39:45;;;;;;;52.72;40.05;;;23.00;99.90;;;;;;5092756;28;20195;-82
2021/07/13 11:42:14;;;;;;;55.00;40.17;;;22.90;99.90;;;;;;5086577;28;20536;-80
2021/07/13 11:44:44;;;;;;;55.55;41.83;;;22.70;99.90;;;;;;5088167;28;20197;-81
2021/07/13 11:47:11;;;;;;;65.82;46.22;;;22.40;99.90;;;;;;5093415;28;20289;-81
2021/07/13 11:49:40;;;;;;;67.78;47.78;;;22.20;99.90;;;;;;5087869;28;20200;-79
2021/07/13 11:52:09;;;;;;;79.53;51.13;;;21.90;99.90;;;;;;5091896;28;20215;-77
2021/07/13 11:54:37;;;;;;;129.90;84.25;;;21.50;99.90;;;;;;5084764;28;20677;-76
2021/07/13 11:57:05;;;;;;;131.93;81.78;;;21.00;99.90;;;;;;5083715;28;20302;-74
2021/07/13 11:59:33;;;;;;;106.17;62.80;;;20.70;99.90;;;;;;5079680;28;20282;-74
2021/07/13 12:02:01;;;;;;;119.03;68.43;;;20.40;99.90;;;;;;5088933;28;20215;-74
2021/07/13 12:04:32;;;;;;;115.63;63.70;;;20.30;99.90;;;;;;5089482;28;20718;-76
2021/07/13 12:07:01;;;;;;;132.70;68.27;;;20.30;99.90;;;;;;5086944;28;20741;-76
2021/07/13 12:09:30;;;;;;;253.73;153.57;;;20.30;99.90;;;;;;5083656;28;20214;-75
2021/07/13 12:11:58;;;;;;;162.30;90.50;;;20.40;99.90;;;;;;5083697;28;20285;-75
2021/07/13 12:14:27;;;;;;;141.50;75.90;;;20.30;99.90;;;;;;5089743;28;20201;-75
2021/07/13 12:16:55;;;;;;;138.57;71.33;;;20.20;99.90;;;;;;5085252;28;20839;-75
2021/07/13 12:19:24;;;;;;;147.87;74.17;;;20.10;99.90;;;;;;5085756;28;20195;-75
2021/07/13 12:21:54;;;;;;;141.50;71.50;;;20.10;99.90;;;;;;5087295;28;20218;-76
2021/07/13 12:24:25;;;;;;;153.97;73.60;;;20.10;99.90;;;;;;5083268;28;20199;-76
2021/07/13 12:26:54;;;;;;;169.00;77.50;;;19.90;99.90;;;;;;5089343;28;20293;-75
2021/07/13 12:29:22;;;;;;;157.47;74.03;;;19.80;99.90;;;;;;5091586;28;20203;-75
2021/07/13 12:31:55;;;;;;;156.23;74.63;;;19.90;99.90;;;;;;5091207;28;20237;-75
2021/07/13 12:34:23;;;;;;;171.27;80.13;;;20.00;99.90;;;;;;5089392;28;20222;-75